<?xml version="1.0" encoding="UTF-8" standalone="no" ?>
<gpx xmlns="http://www.topografix.com/GPX/1/1" xmlns:xsi="http://www.w3.org/2001/XMLSchema-instance" xsi:schemaLocation="http://www.topografix.com/GPX/1/1 http://www.topografix.com/GPX/1/1/gpx.xsd" version="1.1" creator="VisuGPX - https://www.visugpx.com">
  <metadata>
    <name>CRÊTE DE LA GALÈRE</name>
    <desc><![CDATA[Difficulté moyenne.]]></desc>
  </metadata>
  <trk>
    <name><![CDATA[CRÊTE DE LA GALÈRE_1]]></name>
    <trkseg>
      <trkpt lat="43.29527" lon="5.6472">
        <ele>237.4</ele>
        <time>2015-10-07T07:04:54Z</time>
      </trkpt>
      <trkpt lat="43.29528" lon="5.6472">
        <ele>237.1</ele>
        <time>2015-10-07T07:04:55Z</time>
      </trkpt>
      <trkpt lat="43.29561" lon="5.64734">
        <ele>250.8</ele>
        <time>2015-10-07T07:06:05Z</time>
      </trkpt>
      <trkpt lat="43.29562" lon="5.64734">
        <ele>250.8</ele>
        <time>2015-10-07T07:06:06Z</time>
      </trkpt>
      <trkpt lat="43.29587" lon="5.64767">
        <ele>281.3</ele>
        <time>2015-10-07T07:07:20Z</time>
      </trkpt>
      <trkpt lat="43.29587" lon="5.64767">
        <ele>283.8</ele>
        <time>2015-10-07T07:07:21Z</time>
      </trkpt>
      <trkpt lat="43.29587" lon="5.64739">
        <ele>312.2</ele>
        <time>2015-10-07T07:08:38Z</time>
      </trkpt>
      <trkpt lat="43.29588" lon="5.64697">
        <ele>324</ele>
        <time>2015-10-07T07:09:00Z</time>
      </trkpt>
      <trkpt lat="43.2958" lon="5.64686">
        <ele>324.8</ele>
        <time>2015-10-07T07:09:18Z</time>
      </trkpt>
      <trkpt lat="43.29578" lon="5.6471">
        <ele>259.7</ele>
        <time>2015-10-07T07:10:09Z</time>
      </trkpt>
      <trkpt lat="43.29578" lon="5.64711">
        <ele>259.7</ele>
        <time>2015-10-07T07:10:10Z</time>
      </trkpt>
      <trkpt lat="43.296" lon="5.64741">
        <ele>291.2</ele>
        <time>2015-10-07T07:10:20Z</time>
      </trkpt>
      <trkpt lat="43.2961" lon="5.64759">
        <ele>290.8</ele>
        <time>2015-10-07T07:10:29Z</time>
      </trkpt>
      <trkpt lat="43.29619" lon="5.6478">
        <ele>262.3</ele>
        <time>2015-10-07T07:11:32Z</time>
      </trkpt>
      <trkpt lat="43.29619" lon="5.64781">
        <ele>262.6</ele>
        <time>2015-10-07T07:11:33Z</time>
      </trkpt>
      <trkpt lat="43.29633" lon="5.64796">
        <ele>285.1</ele>
        <time>2015-10-07T07:14:22Z</time>
      </trkpt>
      <trkpt lat="43.29649" lon="5.64839">
        <ele>294.7</ele>
        <time>2015-10-07T07:15:26Z</time>
      </trkpt>
      <trkpt lat="43.2965" lon="5.64839">
        <ele>294.6</ele>
        <time>2015-10-07T07:15:27Z</time>
      </trkpt>
      <trkpt lat="43.29684" lon="5.64847">
        <ele>304.5</ele>
        <time>2015-10-07T07:16:38Z</time>
      </trkpt>
      <trkpt lat="43.29685" lon="5.64848">
        <ele>305.5</ele>
        <time>2015-10-07T07:16:39Z</time>
      </trkpt>
      <trkpt lat="43.29715" lon="5.64863">
        <ele>317.6</ele>
        <time>2015-10-07T07:17:40Z</time>
      </trkpt>
      <trkpt lat="43.29716" lon="5.64864">
        <ele>316.7</ele>
        <time>2015-10-07T07:17:41Z</time>
      </trkpt>
      <trkpt lat="43.29738" lon="5.64901">
        <ele>327.6</ele>
        <time>2015-10-07T07:18:33Z</time>
      </trkpt>
      <trkpt lat="43.29751" lon="5.64916">
        <ele>327.3</ele>
        <time>2015-10-07T07:18:56Z</time>
      </trkpt>
      <trkpt lat="43.29752" lon="5.64916">
        <ele>326.8</ele>
        <time>2015-10-07T07:18:57Z</time>
      </trkpt>
      <trkpt lat="43.29781" lon="5.6494">
        <ele>334.7</ele>
        <time>2015-10-07T07:19:50Z</time>
      </trkpt>
      <trkpt lat="43.29794" lon="5.64957">
        <ele>339.2</ele>
        <time>2015-10-07T07:20:17Z</time>
      </trkpt>
      <trkpt lat="43.29795" lon="5.64958">
        <ele>339</ele>
        <time>2015-10-07T07:20:18Z</time>
      </trkpt>
      <trkpt lat="43.29759" lon="5.64961">
        <ele>348.7</ele>
        <time>2015-10-07T07:21:44Z</time>
      </trkpt>
      <trkpt lat="43.29758" lon="5.64962">
        <ele>350.1</ele>
        <time>2015-10-07T07:21:45Z</time>
      </trkpt>
      <trkpt lat="43.29725" lon="5.64961">
        <ele>357.1</ele>
        <time>2015-10-07T07:22:28Z</time>
      </trkpt>
      <trkpt lat="43.29734" lon="5.64982">
        <ele>370.7</ele>
        <time>2015-10-07T07:23:25Z</time>
      </trkpt>
      <trkpt lat="43.29735" lon="5.64983">
        <ele>370.7</ele>
        <time>2015-10-07T07:23:26Z</time>
      </trkpt>
      <trkpt lat="43.29765" lon="5.65006">
        <ele>371.3</ele>
        <time>2015-10-07T07:24:16Z</time>
      </trkpt>
      <trkpt lat="43.29777" lon="5.65024">
        <ele>374.1</ele>
        <time>2015-10-07T07:24:48Z</time>
      </trkpt>
      <trkpt lat="43.29777" lon="5.65024">
        <ele>374.2</ele>
        <time>2015-10-07T07:24:49Z</time>
      </trkpt>
      <trkpt lat="43.29798" lon="5.65062">
        <ele>383.8</ele>
        <time>2015-10-07T07:26:04Z</time>
      </trkpt>
      <trkpt lat="43.29799" lon="5.65063">
        <ele>384.2</ele>
        <time>2015-10-07T07:26:05Z</time>
      </trkpt>
      <trkpt lat="43.29823" lon="5.65098">
        <ele>395.3</ele>
        <time>2015-10-07T07:27:36Z</time>
      </trkpt>
      <trkpt lat="43.29823" lon="5.65098">
        <ele>395.3</ele>
        <time>2015-10-07T07:27:37Z</time>
      </trkpt>
      <trkpt lat="43.29848" lon="5.65131">
        <ele>410.2</ele>
        <time>2015-10-07T07:29:15Z</time>
      </trkpt>
      <trkpt lat="43.29849" lon="5.65132">
        <ele>410.5</ele>
        <time>2015-10-07T07:29:16Z</time>
      </trkpt>
      <trkpt lat="43.2986" lon="5.65151">
        <ele>421</ele>
        <time>2015-10-07T07:30:41Z</time>
      </trkpt>
      <trkpt lat="43.29875" lon="5.65194">
        <ele>430.1</ele>
        <time>2015-10-07T07:32:05Z</time>
      </trkpt>
      <trkpt lat="43.29875" lon="5.65195">
        <ele>430.1</ele>
        <time>2015-10-07T07:32:06Z</time>
      </trkpt>
      <trkpt lat="43.29887" lon="5.6524">
        <ele>438.7</ele>
        <time>2015-10-07T07:33:23Z</time>
      </trkpt>
      <trkpt lat="43.29888" lon="5.65241">
        <ele>438.8</ele>
        <time>2015-10-07T07:33:24Z</time>
      </trkpt>
      <trkpt lat="43.29904" lon="5.65283">
        <ele>442.8</ele>
        <time>2015-10-07T07:34:17Z</time>
      </trkpt>
      <trkpt lat="43.29914" lon="5.65303">
        <ele>438.2</ele>
        <time>2015-10-07T07:34:42Z</time>
      </trkpt>
      <trkpt lat="43.29914" lon="5.65303">
        <ele>438.2</ele>
        <time>2015-10-07T07:34:43Z</time>
      </trkpt>
      <trkpt lat="43.29947" lon="5.6532">
        <ele>458</ele>
        <time>2015-10-07T07:35:46Z</time>
      </trkpt>
      <trkpt lat="43.29947" lon="5.6532">
        <ele>458</ele>
        <time>2015-10-07T07:35:47Z</time>
      </trkpt>
      <trkpt lat="43.29982" lon="5.65327">
        <ele>474.8</ele>
        <time>2015-10-07T07:36:55Z</time>
      </trkpt>
      <trkpt lat="43.29982" lon="5.65326">
        <ele>475.1</ele>
        <time>2015-10-07T07:36:56Z</time>
      </trkpt>
      <trkpt lat="43.30015" lon="5.6531">
        <ele>475.3</ele>
        <time>2015-10-07T07:43:52Z</time>
      </trkpt>
      <trkpt lat="43.30016" lon="5.6531">
        <ele>475.2</ele>
        <time>2015-10-07T07:43:53Z</time>
      </trkpt>
      <trkpt lat="43.30049" lon="5.65316">
        <ele>476.5</ele>
        <time>2015-10-07T07:44:59Z</time>
      </trkpt>
      <trkpt lat="43.3005" lon="5.65316">
        <ele>476.2</ele>
        <time>2015-10-07T07:45:00Z</time>
      </trkpt>
      <trkpt lat="43.30072" lon="5.65285">
        <ele>483.1</ele>
        <time>2015-10-07T07:45:59Z</time>
      </trkpt>
      <trkpt lat="43.30072" lon="5.65261">
        <ele>480.8</ele>
        <time>2015-10-07T07:46:26Z</time>
      </trkpt>
      <trkpt lat="43.30071" lon="5.6526">
        <ele>481.2</ele>
        <time>2015-10-07T07:46:27Z</time>
      </trkpt>
      <trkpt lat="43.3006" lon="5.65216">
        <ele>491.2</ele>
        <time>2015-10-07T07:47:08Z</time>
      </trkpt>
      <trkpt lat="43.30072" lon="5.65199">
        <ele>495.2</ele>
        <time>2015-10-07T07:47:40Z</time>
      </trkpt>
      <trkpt lat="43.30073" lon="5.65199">
        <ele>495.2</ele>
        <time>2015-10-07T07:47:41Z</time>
      </trkpt>
      <trkpt lat="43.30096" lon="5.65163">
        <ele>499.7</ele>
        <time>2015-10-07T07:48:35Z</time>
      </trkpt>
      <trkpt lat="43.30112" lon="5.65153">
        <ele>501.2</ele>
        <time>2015-10-07T07:48:55Z</time>
      </trkpt>
      <trkpt lat="43.30112" lon="5.65152">
        <ele>501.3</ele>
        <time>2015-10-07T07:48:56Z</time>
      </trkpt>
      <trkpt lat="43.30141" lon="5.65127">
        <ele>510.8</ele>
        <time>2015-10-07T07:49:50Z</time>
      </trkpt>
      <trkpt lat="43.30151" lon="5.65148">
        <ele>517.2</ele>
        <time>2015-10-07T07:50:59Z</time>
      </trkpt>
      <trkpt lat="43.30151" lon="5.65149">
        <ele>517.4</ele>
        <time>2015-10-07T07:51:00Z</time>
      </trkpt>
      <trkpt lat="43.3014" lon="5.65195">
        <ele>530.2</ele>
        <time>2015-10-07T07:52:16Z</time>
      </trkpt>
      <trkpt lat="43.3014" lon="5.65195">
        <ele>530.4</ele>
        <time>2015-10-07T07:52:17Z</time>
      </trkpt>
      <trkpt lat="43.3015" lon="5.65241">
        <ele>545</ele>
        <time>2015-10-07T07:53:18Z</time>
      </trkpt>
      <trkpt lat="43.30151" lon="5.65241">
        <ele>545.2</ele>
        <time>2015-10-07T07:53:19Z</time>
      </trkpt>
      <trkpt lat="43.30166" lon="5.65284">
        <ele>552.2</ele>
        <time>2015-10-07T07:54:11Z</time>
      </trkpt>
      <trkpt lat="43.30177" lon="5.65303">
        <ele>555</ele>
        <time>2015-10-07T07:54:31Z</time>
      </trkpt>
      <trkpt lat="43.30177" lon="5.65304">
        <ele>555.2</ele>
        <time>2015-10-07T07:54:32Z</time>
      </trkpt>
      <trkpt lat="43.30184" lon="5.65349">
        <ele>554.5</ele>
        <time>2015-10-07T07:55:10Z</time>
      </trkpt>
      <trkpt lat="43.30183" lon="5.65374">
        <ele>554.5</ele>
        <time>2015-10-07T07:55:28Z</time>
      </trkpt>
      <trkpt lat="43.30188" lon="5.65397">
        <ele>558</ele>
        <time>2015-10-07T07:55:47Z</time>
      </trkpt>
      <trkpt lat="43.30188" lon="5.65397">
        <ele>558.5</ele>
        <time>2015-10-07T07:55:48Z</time>
      </trkpt>
      <trkpt lat="43.30217" lon="5.6538">
        <ele>565.2</ele>
        <time>2015-10-07T07:56:56Z</time>
      </trkpt>
      <trkpt lat="43.30218" lon="5.6538">
        <ele>565.4</ele>
        <time>2015-10-07T07:56:57Z</time>
      </trkpt>
      <trkpt lat="43.30246" lon="5.65369">
        <ele>579.7</ele>
        <time>2015-10-07T07:58:09Z</time>
      </trkpt>
      <trkpt lat="43.30247" lon="5.65369">
        <ele>579.7</ele>
        <time>2015-10-07T07:58:10Z</time>
      </trkpt>
      <trkpt lat="43.30277" lon="5.65379">
        <ele>588.7</ele>
        <time>2015-10-07T07:59:24Z</time>
      </trkpt>
      <trkpt lat="43.30277" lon="5.6538">
        <ele>589.2</ele>
        <time>2015-10-07T07:59:25Z</time>
      </trkpt>
      <trkpt lat="43.30301" lon="5.6535">
        <ele>596.7</ele>
        <time>2015-10-07T08:00:51Z</time>
      </trkpt>
      <trkpt lat="43.30302" lon="5.6535">
        <ele>597.2</ele>
        <time>2015-10-07T08:00:52Z</time>
      </trkpt>
      <trkpt lat="43.30331" lon="5.65374">
        <ele>611</ele>
        <time>2015-10-07T08:02:19Z</time>
      </trkpt>
      <trkpt lat="43.30331" lon="5.65375">
        <ele>611.2</ele>
        <time>2015-10-07T08:02:20Z</time>
      </trkpt>
      <trkpt lat="43.30343" lon="5.65394">
        <ele>615.2</ele>
        <time>2015-10-07T08:11:34Z</time>
      </trkpt>
      <trkpt lat="43.30356" lon="5.65437">
        <ele>619.4</ele>
        <time>2015-10-07T08:12:49Z</time>
      </trkpt>
      <trkpt lat="43.30356" lon="5.65438">
        <ele>619.4</ele>
        <time>2015-10-07T08:12:50Z</time>
      </trkpt>
      <trkpt lat="43.30358" lon="5.65486">
        <ele>628</ele>
        <time>2015-10-07T08:13:56Z</time>
      </trkpt>
      <trkpt lat="43.30358" lon="5.65486">
        <ele>628.2</ele>
        <time>2015-10-07T08:13:57Z</time>
      </trkpt>
      <trkpt lat="43.30355" lon="5.65533">
        <ele>637.7</ele>
        <time>2015-10-07T08:15:00Z</time>
      </trkpt>
      <trkpt lat="43.30355" lon="5.65534">
        <ele>638</ele>
        <time>2015-10-07T08:15:01Z</time>
      </trkpt>
      <trkpt lat="43.30382" lon="5.65558">
        <ele>651.4</ele>
        <time>2015-10-07T08:15:50Z</time>
      </trkpt>
      <trkpt lat="43.304" lon="5.6556">
        <ele>651.5</ele>
        <time>2015-10-07T08:16:16Z</time>
      </trkpt>
      <trkpt lat="43.304" lon="5.6556">
        <ele>651.7</ele>
        <time>2015-10-07T08:16:17Z</time>
      </trkpt>
      <trkpt lat="43.30434" lon="5.65567">
        <ele>656.5</ele>
        <time>2015-10-07T08:17:04Z</time>
      </trkpt>
      <trkpt lat="43.30451" lon="5.65573">
        <ele>662.5</ele>
        <time>2015-10-07T08:17:35Z</time>
      </trkpt>
      <trkpt lat="43.30452" lon="5.65573">
        <ele>662.4</ele>
        <time>2015-10-07T08:17:36Z</time>
      </trkpt>
      <trkpt lat="43.30486" lon="5.65584">
        <ele>668.2</ele>
        <time>2015-10-07T08:18:44Z</time>
      </trkpt>
      <trkpt lat="43.30486" lon="5.65585">
        <ele>668.2</ele>
        <time>2015-10-07T08:18:45Z</time>
      </trkpt>
      <trkpt lat="43.30521" lon="5.65587">
        <ele>679.9</ele>
        <time>2015-10-07T08:20:03Z</time>
      </trkpt>
      <trkpt lat="43.30522" lon="5.65587">
        <ele>680.2</ele>
        <time>2015-10-07T08:20:04Z</time>
      </trkpt>
      <trkpt lat="43.30552" lon="5.65601">
        <ele>684.9</ele>
        <time>2015-10-07T08:21:39Z</time>
      </trkpt>
      <trkpt lat="43.30552" lon="5.65602">
        <ele>684.9</ele>
        <time>2015-10-07T08:21:40Z</time>
      </trkpt>
      <trkpt lat="43.30575" lon="5.65636">
        <ele>691</ele>
        <time>2015-10-07T08:22:59Z</time>
      </trkpt>
      <trkpt lat="43.30576" lon="5.65637">
        <ele>691.2</ele>
        <time>2015-10-07T08:23:00Z</time>
      </trkpt>
      <trkpt lat="43.30598" lon="5.65672">
        <ele>694.5</ele>
        <time>2015-10-07T08:23:58Z</time>
      </trkpt>
      <trkpt lat="43.30611" lon="5.65689">
        <ele>695.4</ele>
        <time>2015-10-07T08:24:21Z</time>
      </trkpt>
      <trkpt lat="43.30611" lon="5.6569">
        <ele>695.5</ele>
        <time>2015-10-07T08:24:22Z</time>
      </trkpt>
      <trkpt lat="43.30635" lon="5.65723">
        <ele>704.5</ele>
        <time>2015-10-07T08:25:33Z</time>
      </trkpt>
      <trkpt lat="43.30635" lon="5.65723">
        <ele>704.7</ele>
        <time>2015-10-07T08:25:34Z</time>
      </trkpt>
      <trkpt lat="43.30659" lon="5.65752">
        <ele>708.4</ele>
        <time>2015-10-07T08:26:35Z</time>
      </trkpt>
      <trkpt lat="43.3066" lon="5.65753">
        <ele>708.4</ele>
        <time>2015-10-07T08:26:36Z</time>
      </trkpt>
      <trkpt lat="43.30688" lon="5.65778">
        <ele>710.7</ele>
        <time>2015-10-07T08:27:19Z</time>
      </trkpt>
      <trkpt lat="43.30698" lon="5.65799">
        <ele>706.7</ele>
        <time>2015-10-07T08:27:45Z</time>
      </trkpt>
      <trkpt lat="43.30699" lon="5.658">
        <ele>706.5</ele>
        <time>2015-10-07T08:27:46Z</time>
      </trkpt>
      <trkpt lat="43.30729" lon="5.65821">
        <ele>713.2</ele>
        <time>2015-10-07T08:28:26Z</time>
      </trkpt>
      <trkpt lat="43.30744" lon="5.65834">
        <ele>716</ele>
        <time>2015-10-07T08:29:17Z</time>
      </trkpt>
      <trkpt lat="43.30745" lon="5.65835">
        <ele>716</ele>
        <time>2015-10-07T08:29:18Z</time>
      </trkpt>
      <trkpt lat="43.30773" lon="5.65861">
        <ele>723.7</ele>
        <time>2015-10-07T08:30:21Z</time>
      </trkpt>
      <trkpt lat="43.30774" lon="5.65862">
        <ele>723.7</ele>
        <time>2015-10-07T08:30:22Z</time>
      </trkpt>
      <trkpt lat="43.30798" lon="5.65896">
        <ele>729.7</ele>
        <time>2015-10-07T08:31:20Z</time>
      </trkpt>
      <trkpt lat="43.30813" lon="5.65907">
        <ele>737.7</ele>
        <time>2015-10-07T08:31:50Z</time>
      </trkpt>
      <trkpt lat="43.30814" lon="5.65908">
        <ele>737.7</ele>
        <time>2015-10-07T08:31:51Z</time>
      </trkpt>
      <trkpt lat="43.30843" lon="5.65935">
        <ele>746.4</ele>
        <time>2015-10-07T08:32:46Z</time>
      </trkpt>
      <trkpt lat="43.30858" lon="5.65949">
        <ele>749.7</ele>
        <time>2015-10-07T08:33:10Z</time>
      </trkpt>
      <trkpt lat="43.30858" lon="5.65949">
        <ele>749.7</ele>
        <time>2015-10-07T08:33:11Z</time>
      </trkpt>
      <trkpt lat="43.30885" lon="5.6598">
        <ele>750.4</ele>
        <time>2015-10-07T08:33:59Z</time>
      </trkpt>
      <trkpt lat="43.30891" lon="5.66002">
        <ele>754.5</ele>
        <time>2015-10-07T08:34:24Z</time>
      </trkpt>
      <trkpt lat="43.30891" lon="5.66003">
        <ele>754.5</ele>
        <time>2015-10-07T08:34:25Z</time>
      </trkpt>
      <trkpt lat="43.30904" lon="5.66047">
        <ele>752.4</ele>
        <time>2015-10-07T08:35:11Z</time>
      </trkpt>
      <trkpt lat="43.30912" lon="5.66069">
        <ele>754.2</ele>
        <time>2015-10-07T08:35:32Z</time>
      </trkpt>
      <trkpt lat="43.30913" lon="5.6607">
        <ele>754.2</ele>
        <time>2015-10-07T08:35:33Z</time>
      </trkpt>
      <trkpt lat="43.30909" lon="5.66094">
        <ele>762.7</ele>
        <time>2015-10-07T08:36:41Z</time>
      </trkpt>
      <trkpt lat="43.30923" lon="5.66108">
        <ele>764.5</ele>
        <time>2015-10-07T08:39:34Z</time>
      </trkpt>
      <trkpt lat="43.30958" lon="5.66109">
        <ele>775.2</ele>
        <time>2015-10-07T08:40:36Z</time>
      </trkpt>
      <trkpt lat="43.30959" lon="5.66109">
        <ele>775.2</ele>
        <time>2015-10-07T08:40:37Z</time>
      </trkpt>
      <trkpt lat="43.30986" lon="5.66095">
        <ele>778.7</ele>
        <time>2015-10-07T08:53:19Z</time>
      </trkpt>
      <trkpt lat="43.30987" lon="5.66094">
        <ele>778.7</ele>
        <time>2015-10-07T08:53:20Z</time>
      </trkpt>
      <trkpt lat="43.31021" lon="5.66086">
        <ele>781.4</ele>
        <time>2015-10-07T08:54:03Z</time>
      </trkpt>
      <trkpt lat="43.31038" lon="5.66078">
        <ele>780.4</ele>
        <time>2015-10-07T08:54:23Z</time>
      </trkpt>
      <trkpt lat="43.31038" lon="5.66077">
        <ele>780.5</ele>
        <time>2015-10-07T08:54:24Z</time>
      </trkpt>
      <trkpt lat="43.31071" lon="5.66062">
        <ele>774</ele>
        <time>2015-10-07T08:55:39Z</time>
      </trkpt>
      <trkpt lat="43.31072" lon="5.66063">
        <ele>773.7</ele>
        <time>2015-10-07T08:55:40Z</time>
      </trkpt>
      <trkpt lat="43.31105" lon="5.66069">
        <ele>769.5</ele>
        <time>2015-10-07T08:56:41Z</time>
      </trkpt>
      <trkpt lat="43.31106" lon="5.66069">
        <ele>769.7</ele>
        <time>2015-10-07T08:56:42Z</time>
      </trkpt>
      <trkpt lat="43.31141" lon="5.66068">
        <ele>769.7</ele>
        <time>2015-10-07T08:57:41Z</time>
      </trkpt>
      <trkpt lat="43.31156" lon="5.66079">
        <ele>773.2</ele>
        <time>2015-10-07T08:58:09Z</time>
      </trkpt>
      <trkpt lat="43.31157" lon="5.66079">
        <ele>773.5</ele>
        <time>2015-10-07T08:58:10Z</time>
      </trkpt>
      <trkpt lat="43.31191" lon="5.66086">
        <ele>777.5</ele>
        <time>2015-10-07T08:59:06Z</time>
      </trkpt>
      <trkpt lat="43.31208" lon="5.66092">
        <ele>781.2</ele>
        <time>2015-10-07T08:59:41Z</time>
      </trkpt>
      <trkpt lat="43.31209" lon="5.66092">
        <ele>781.2</ele>
        <time>2015-10-07T08:59:42Z</time>
      </trkpt>
      <trkpt lat="43.31244" lon="5.66092">
        <ele>785.4</ele>
        <time>2015-10-07T09:00:33Z</time>
      </trkpt>
      <trkpt lat="43.31261" lon="5.66097">
        <ele>786.5</ele>
        <time>2015-10-07T09:01:01Z</time>
      </trkpt>
      <trkpt lat="43.31261" lon="5.66097">
        <ele>786.5</ele>
        <time>2015-10-07T09:01:02Z</time>
      </trkpt>
      <trkpt lat="43.31296" lon="5.66089">
        <ele>782.4</ele>
        <time>2015-10-07T09:01:56Z</time>
      </trkpt>
      <trkpt lat="43.31313" lon="5.66088">
        <ele>779.7</ele>
        <time>2015-10-07T09:02:17Z</time>
      </trkpt>
      <trkpt lat="43.31314" lon="5.66088">
        <ele>779.7</ele>
        <time>2015-10-07T09:02:18Z</time>
      </trkpt>
      <trkpt lat="43.31346" lon="5.66074">
        <ele>777.7</ele>
        <time>2015-10-07T09:03:05Z</time>
      </trkpt>
      <trkpt lat="43.31361" lon="5.6606">
        <ele>772.7</ele>
        <time>2015-10-07T09:03:41Z</time>
      </trkpt>
      <trkpt lat="43.31361" lon="5.6606">
        <ele>772.5</ele>
        <time>2015-10-07T09:03:42Z</time>
      </trkpt>
      <trkpt lat="43.3139" lon="5.66075">
        <ele>759</ele>
        <time>2015-10-07T09:04:51Z</time>
      </trkpt>
      <trkpt lat="43.3139" lon="5.66076">
        <ele>758.5</ele>
        <time>2015-10-07T09:04:52Z</time>
      </trkpt>
      <trkpt lat="43.31417" lon="5.66105">
        <ele>754.2</ele>
        <time>2015-10-07T09:05:46Z</time>
      </trkpt>
      <trkpt lat="43.31435" lon="5.66104">
        <ele>746.2</ele>
        <time>2015-10-07T09:06:26Z</time>
      </trkpt>
      <trkpt lat="43.31435" lon="5.66104">
        <ele>745.9</ele>
        <time>2015-10-07T09:06:27Z</time>
      </trkpt>
      <trkpt lat="43.31459" lon="5.66139">
        <ele>737.7</ele>
        <time>2015-10-07T09:07:16Z</time>
      </trkpt>
      <trkpt lat="43.31472" lon="5.66156">
        <ele>734.2</ele>
        <time>2015-10-07T09:07:37Z</time>
      </trkpt>
      <trkpt lat="43.31473" lon="5.66157">
        <ele>734</ele>
        <time>2015-10-07T09:07:38Z</time>
      </trkpt>
      <trkpt lat="43.31503" lon="5.66176">
        <ele>731.4</ele>
        <time>2015-10-07T09:08:20Z</time>
      </trkpt>
      <trkpt lat="43.31519" lon="5.66185">
        <ele>729</ele>
        <time>2015-10-07T09:08:40Z</time>
      </trkpt>
      <trkpt lat="43.3152" lon="5.66185">
        <ele>729</ele>
        <time>2015-10-07T09:08:41Z</time>
      </trkpt>
      <trkpt lat="43.31532" lon="5.66158">
        <ele>724.9</ele>
        <time>2015-10-07T09:16:08Z</time>
      </trkpt>
      <trkpt lat="43.31531" lon="5.66157">
        <ele>724.7</ele>
        <time>2015-10-07T09:16:09Z</time>
      </trkpt>
      <trkpt lat="43.31535" lon="5.66123">
        <ele>717.2</ele>
        <time>2015-10-07T09:17:13Z</time>
      </trkpt>
      <trkpt lat="43.31535" lon="5.66122">
        <ele>717</ele>
        <time>2015-10-07T09:17:14Z</time>
      </trkpt>
      <trkpt lat="43.31536" lon="5.66075">
        <ele>711.5</ele>
        <time>2015-10-07T09:17:55Z</time>
      </trkpt>
      <trkpt lat="43.31536" lon="5.66051">
        <ele>710.7</ele>
        <time>2015-10-07T09:18:13Z</time>
      </trkpt>
      <trkpt lat="43.31534" lon="5.66028">
        <ele>709.4</ele>
        <time>2015-10-07T09:18:30Z</time>
      </trkpt>
      <trkpt lat="43.31534" lon="5.66026">
        <ele>709.4</ele>
        <time>2015-10-07T09:18:31Z</time>
      </trkpt>
      <trkpt lat="43.31544" lon="5.65982">
        <ele>704</ele>
        <time>2015-10-07T09:19:16Z</time>
      </trkpt>
      <trkpt lat="43.3155" lon="5.65959">
        <ele>704</ele>
        <time>2015-10-07T09:19:38Z</time>
      </trkpt>
      <trkpt lat="43.31549" lon="5.65958">
        <ele>703.5</ele>
        <time>2015-10-07T09:19:39Z</time>
      </trkpt>
      <trkpt lat="43.31558" lon="5.65912">
        <ele>694.7</ele>
        <time>2015-10-07T09:20:46Z</time>
      </trkpt>
      <trkpt lat="43.31557" lon="5.65911">
        <ele>694</ele>
        <time>2015-10-07T09:20:47Z</time>
      </trkpt>
      <trkpt lat="43.31561" lon="5.65864">
        <ele>689.2</ele>
        <time>2015-10-07T09:21:47Z</time>
      </trkpt>
      <trkpt lat="43.31561" lon="5.65863">
        <ele>689.5</ele>
        <time>2015-10-07T09:21:48Z</time>
      </trkpt>
      <trkpt lat="43.31562" lon="5.65827">
        <ele>689</ele>
        <time>2015-10-07T09:22:31Z</time>
      </trkpt>
      <trkpt lat="43.3157" lon="5.65805">
        <ele>687.7</ele>
        <time>2015-10-07T09:22:57Z</time>
      </trkpt>
      <trkpt lat="43.3157" lon="5.65805">
        <ele>687.5</ele>
        <time>2015-10-07T09:22:58Z</time>
      </trkpt>
      <trkpt lat="43.31585" lon="5.65767">
        <ele>679</ele>
        <time>2015-10-07T09:23:50Z</time>
      </trkpt>
      <trkpt lat="43.31595" lon="5.65747">
        <ele>674</ele>
        <time>2015-10-07T09:24:26Z</time>
      </trkpt>
      <trkpt lat="43.31595" lon="5.65746">
        <ele>674</ele>
        <time>2015-10-07T09:24:27Z</time>
      </trkpt>
      <trkpt lat="43.31608" lon="5.65705">
        <ele>669.2</ele>
        <time>2015-10-07T09:25:09Z</time>
      </trkpt>
      <trkpt lat="43.31616" lon="5.65684">
        <ele>669.2</ele>
        <time>2015-10-07T09:25:58Z</time>
      </trkpt>
      <trkpt lat="43.31617" lon="5.65682">
        <ele>669.7</ele>
        <time>2015-10-07T09:25:59Z</time>
      </trkpt>
      <trkpt lat="43.31648" lon="5.65667">
        <ele>660.9</ele>
        <time>2015-10-07T09:26:28Z</time>
      </trkpt>
      <trkpt lat="43.31663" lon="5.65654">
        <ele>657.2</ele>
        <time>2015-10-07T09:26:43Z</time>
      </trkpt>
      <trkpt lat="43.31679" lon="5.65644">
        <ele>655</ele>
        <time>2015-10-07T09:27:06Z</time>
      </trkpt>
      <trkpt lat="43.31679" lon="5.65644">
        <ele>655.2</ele>
        <time>2015-10-07T09:27:07Z</time>
      </trkpt>
      <trkpt lat="43.31705" lon="5.65611">
        <ele>650.7</ele>
        <time>2015-10-07T09:28:10Z</time>
      </trkpt>
      <trkpt lat="43.31705" lon="5.65611">
        <ele>650.7</ele>
        <time>2015-10-07T09:28:11Z</time>
      </trkpt>
      <trkpt lat="43.3172" lon="5.65568">
        <ele>645.5</ele>
        <time>2015-10-07T09:28:58Z</time>
      </trkpt>
      <trkpt lat="43.31727" lon="5.65546">
        <ele>642.7</ele>
        <time>2015-10-07T09:29:18Z</time>
      </trkpt>
      <trkpt lat="43.31728" lon="5.65545">
        <ele>643.2</ele>
        <time>2015-10-07T09:29:19Z</time>
      </trkpt>
      <trkpt lat="43.31752" lon="5.65512">
        <ele>638</ele>
        <time>2015-10-07T09:30:00Z</time>
      </trkpt>
      <trkpt lat="43.3176" lon="5.65491">
        <ele>637.4</ele>
        <time>2015-10-07T09:30:19Z</time>
      </trkpt>
      <trkpt lat="43.3176" lon="5.6549">
        <ele>637.5</ele>
        <time>2015-10-07T09:30:20Z</time>
      </trkpt>
      <trkpt lat="43.3178" lon="5.65451">
        <ele>632.5</ele>
        <time>2015-10-07T09:31:06Z</time>
      </trkpt>
      <trkpt lat="43.31793" lon="5.65435">
        <ele>627</ele>
        <time>2015-10-07T09:31:28Z</time>
      </trkpt>
      <trkpt lat="43.31794" lon="5.65435">
        <ele>627</ele>
        <time>2015-10-07T09:31:29Z</time>
      </trkpt>
      <trkpt lat="43.31816" lon="5.65399">
        <ele>619.9</ele>
        <time>2015-10-07T09:32:13Z</time>
      </trkpt>
      <trkpt lat="43.31825" lon="5.65379">
        <ele>617.2</ele>
        <time>2015-10-07T09:32:39Z</time>
      </trkpt>
      <trkpt lat="43.31826" lon="5.65378">
        <ele>617.2</ele>
        <time>2015-10-07T09:32:40Z</time>
      </trkpt>
      <trkpt lat="43.31855" lon="5.65353">
        <ele>609.4</ele>
        <time>2015-10-07T09:33:25Z</time>
      </trkpt>
      <trkpt lat="43.31864" lon="5.65333">
        <ele>604.2</ele>
        <time>2015-10-07T09:33:44Z</time>
      </trkpt>
      <trkpt lat="43.31864" lon="5.65332">
        <ele>603.7</ele>
        <time>2015-10-07T09:33:45Z</time>
      </trkpt>
      <trkpt lat="43.31885" lon="5.65294">
        <ele>613.2</ele>
        <time>2015-10-07T09:34:23Z</time>
      </trkpt>
      <trkpt lat="43.31897" lon="5.65276">
        <ele>609.7</ele>
        <time>2015-10-07T09:34:48Z</time>
      </trkpt>
      <trkpt lat="43.31898" lon="5.65275">
        <ele>609.5</ele>
        <time>2015-10-07T09:34:49Z</time>
      </trkpt>
      <trkpt lat="43.31901" lon="5.6523">
        <ele>606.7</ele>
        <time>2015-10-07T09:35:31Z</time>
      </trkpt>
      <trkpt lat="43.31895" lon="5.65207">
        <ele>599.5</ele>
        <time>2015-10-07T09:35:55Z</time>
      </trkpt>
      <trkpt lat="43.31895" lon="5.65206">
        <ele>599.9</ele>
        <time>2015-10-07T09:35:56Z</time>
      </trkpt>
      <trkpt lat="43.31897" lon="5.65162">
        <ele>596.2</ele>
        <time>2015-10-07T09:38:10Z</time>
      </trkpt>
      <trkpt lat="43.31897" lon="5.65161">
        <ele>597.2</ele>
        <time>2015-10-07T09:38:11Z</time>
      </trkpt>
      <trkpt lat="43.31901" lon="5.65138">
        <ele>589</ele>
        <time>2015-10-07T09:39:35Z</time>
      </trkpt>
      <trkpt lat="43.31919" lon="5.65139">
        <ele>588.5</ele>
        <time>2015-10-07T09:44:53Z</time>
      </trkpt>
      <trkpt lat="43.31945" lon="5.65108">
        <ele>562.2</ele>
        <time>2015-10-07T09:45:35Z</time>
      </trkpt>
      <trkpt lat="43.31958" lon="5.65093">
        <ele>558.5</ele>
        <time>2015-10-07T09:45:53Z</time>
      </trkpt>
      <trkpt lat="43.31959" lon="5.65092">
        <ele>558.4</ele>
        <time>2015-10-07T09:45:54Z</time>
      </trkpt>
      <trkpt lat="43.31981" lon="5.65056">
        <ele>554.2</ele>
        <time>2015-10-07T09:46:26Z</time>
      </trkpt>
      <trkpt lat="43.3199" lon="5.65037">
        <ele>551.2</ele>
        <time>2015-10-07T09:46:47Z</time>
      </trkpt>
      <trkpt lat="43.31995" lon="5.65013">
        <ele>552.9</ele>
        <time>2015-10-07T09:47:30Z</time>
      </trkpt>
      <trkpt lat="43.31996" lon="5.65012">
        <ele>552.4</ele>
        <time>2015-10-07T09:47:31Z</time>
      </trkpt>
    </trkseg>
  </trk>
</gpx>